Time;durP1;ratioP1;P1;durP2;ratioP2;P2;SDS_P1;SDS_P2;PMS_P1;PMS_P2;Temp;Humidity;BMP_temperature;BMP_pressure;BME280_temperature;BME280_humidity;BME280_pressure;Samples;Min_cycle;Max_cycle;Signal;HPM_P1;HPM_P2
2021/12/05 00:24:18;;;;;;;9.18;4.80;;;;;;;16.40;61.40;99638.41;4974704;28;20126;-87
2021/12/05 00:27:05;;;;;;;7.30;3.72;;;;;;;16.40;61.47;99649.66;4976283;28;20037;-86
2021/12/05 00:29:52;;;;;;;7.80;4.40;;;;;;;16.40;61.55;99643.59;4974851;28;20078;-82
2021/12/05 00:32:37;;;;;;;8.45;4.00;;;;;;;16.40;61.31;99648.81;4961680;28;20445;-86
2021/12/05 01:15:03;;;;;;;4.47;2.70;;;;;;;16.42;60.83;99649.63;4975656;28;20027;-83
2021/12/05 01:17:39;;;;;;;6.30;3.38;;;;;;;16.42;60.82;99647.03;4974280;28;20094;-87
2021/12/05 01:20:10;;;;;;;5.07;3.00;;;;;;;16.41;60.84;99645.31;4974014;28;20429;-84
2021/12/05 01:22:41;;;;;;;5.68;3.20;;;;;;;16.40;60.64;99649.66;4974038;28;20468;-87
2021/12/05 01:25:34;;;;;;;6.68;2.80;;;;;;;16.40;60.88;99646.22;4958835;28;20045;-86
2021/12/05 01:28:21;;;;;;;6.55;2.97;;;;;;;16.39;60.74;99645.31;4961875;28;20117;-87
2021/12/05 01:31:06;;;;;;;5.95;2.80;;;;;;;16.40;60.64;99644.47;4975082;28;20093;-84
2021/12/05 01:36:42;;;;;;;8.60;3.20;;;;;;;16.39;60.79;99647.91;4910456;28;20078;-86
2021/12/05 02:16:41;;;;;;;4.47;2.30;;;;;;;16.38;60.56;99653.19;4974601;28;20105;-76
2021/12/05 02:41:01;;;;;;;4.38;2.33;;;;;;;16.41;60.18;99645.31;4876838;28;20049;-77
2021/12/05 02:43:48;;;;;;;4.25;2.17;;;;;;;16.40;60.21;99639.25;4974021;28;20093;-77
2021/12/05 02:46:16;;;;;;;3.83;2.17;;;;;;;16.40;59.94;99639.25;4972949;28;20065;-76
2021/12/05 02:48:44;;;;;;;3.97;2.20;;;;;;;16.41;59.93;99637.50;4958424;28;20109;-76
2021/12/05 02:51:18;;;;;;;5.05;2.10;;;;;;;16.40;60.13;99635.81;4977348;28;20121;-77
2021/12/05 02:53:50;;;;;;;;;;;;;;;16.41;60.15;99640.94;4976566;28;20086;-76
2021/12/05 02:56:18;;;;;;;4.40;2.28;;;;;;;16.41;60.09;99640.09;4976030;28;19910;-77
2021/12/05 02:58:54;;;;;;;4.63;2.13;;;;;;;16.39;59.73;99642.72;4976239;28;20023;-76
2021/12/05 03:01:31;;;;;;;5.22;2.47;;;;;;;16.40;59.93;99641.00;4961164;28;20038;-76
2021/12/05 03:03:57;;;;;;;4.10;1.83;;;;;;;16.39;60.05;99645.31;4977140;28;20027;-76
2021/12/05 03:06:27;;;;;;;4.55;2.28;;;;;;;16.39;60.10;99650.53;4977093;28;20046;-76
2021/12/05 03:08:57;;;;;;;4.03;1.85;;;;;;;16.38;59.97;99647.97;4975869;28;20086;-75
2021/12/05 03:11:24;;;;;;;3.78;2.10;;;;;;;16.38;60.10;99647.97;4977167;28;20109;-75
2021/12/05 03:13:50;;;;;;;3.55;1.88;;;;;;;16.37;60.00;99648.84;4959862;28;20062;-75
2021/12/05 03:16:18;;;;;;;4.97;2.13;;;;;;;16.38;59.77;99653.19;4975806;28;20117;-75
2021/12/05 03:18:44;;;;;;;4.72;2.10;;;;;;;16.38;59.86;99651.44;4975660;28;20035;-75
2021/12/05 03:21:10;;;;;;;3.97;2.10;;;;;;;16.39;59.87;99658.31;4975807;28;20134;-75
2021/12/05 03:23:39;;;;;;;4.03;2.05;;;;;;;16.38;59.77;99653.19;4975586;28;20089;-80
2021/12/05 03:26:10;;;;;;;4.30;2.00;;;;;;;16.38;59.87;99647.97;4975705;28;20035;-80
2021/12/05 03:28:36;;;;;;;4.10;2.13;;;;;;;16.37;59.72;99648.84;4976972;28;20039;-82
2021/12/05 03:31:04;;;;;;;3.47;1.77;;;;;;;16.37;59.85;99646.25;4975731;28;20035;-83
2021/12/05 03:33:29;;;;;;;3.90;2.00;;;;;;;16.36;59.60;99648.00;4975752;28;20405;-81
2021/12/05 03:35:55;;;;;;;4.70;2.30;;;;;;;16.36;59.91;99648.00;4975594;28;20045;-81
2021/12/05 03:38:21;;;;;;;3.65;2.20;;;;;;;16.37;59.72;99651.44;4959519;28;20034;-80
2021/12/05 03:40:46;;;;;;;3.78;2.10;;;;;;;16.37;59.79;99644.50;4976764;28;20138;-81
2021/12/05 03:43:14;;;;;;;3.45;1.77;;;;;;;16.37;59.85;99649.69;4975394;28;20030;-81
2021/12/05 03:45:43;;;;;;;2.80;1.65;;;;;;;16.37;59.74;99654.03;4975352;28;20097;-81
2021/12/05 03:48:11;;;;;;;4.32;1.92;;;;;;;16.36;59.73;99657.53;4977139;28;20051;-80
2021/12/05 03:50:37;;;;;;;3.97;2.00;;;;;;;16.35;59.60;99667.09;4976393;28;20129;-81
2021/12/05 03:53:04;;;;;;;2.63;1.70;;;;;;;16.34;59.84;99662.78;4975649;28;20121;-82
2021/12/05 03:55:29;;;;;;;3.75;1.90;;;;;;;16.35;59.73;99667.09;4959147;28;20039;-79
2021/12/05 03:57:55;;;;;;;4.00;2.00;;;;;;;16.34;59.82;99664.50;4943171;28;20041;-80
2021/12/05 04:00:25;;;;;;;3.38;1.60;;;;;;;16.35;59.59;99666.22;4976478;28;20393;-81
2021/12/05 04:02:52;;;;;;;4.57;2.00;;;;;;;16.35;59.72;99674.00;4974884;28;20496;-77
2021/12/05 04:05:19;;;;;;;3.13;1.88;;;;;;;16.35;59.56;99679.19;4958638;28;20034;-76
2021/12/05 04:07:45;;;;;;;3.40;1.95;;;;;;;16.35;59.66;99685.25;4958754;28;20039;-76
2021/12/05 04:10:12;;;;;;;3.05;1.77;;;;;;;16.35;59.74;99686.97;4975886;28;20038;-76
2021/12/05 04:12:37;;;;;;;4.00;2.10;;;;;;;16.35;60.06;99697.38;4974615;28;20436;-77
2021/12/05 04:15:04;;;;;;;4.00;1.75;;;;;;;16.33;59.53;99684.44;4974805;28;20034;-76
2021/12/05 04:17:29;;;;;;;3.80;1.70;;;;;;;16.34;59.50;99693.91;4942870;28;20094;-76
2021/12/05 04:19:55;;;;;;;3.63;1.77;;;;;;;16.33;59.57;99700.03;4974769;28;20030;-77
2021/12/05 04:22:20;;;;;;;3.22;1.67;;;;;;;16.33;59.60;99702.63;4958385;28;20042;-75
2021/12/05 04:24:47;;;;;;;3.58;1.83;;;;;;;16.34;59.76;99693.06;4942339;28;20441;-77
2021/12/05 04:27:12;;;;;;;4.10;1.98;;;;;;;16.35;59.56;99694.75;4974285;28;20477;-77
2021/12/05 04:29:38;;;;;;;3.45;1.55;;;;;;;16.35;59.56;99698.25;4958221;28;20100;-77
2021/12/05 04:32:05;;;;;;;2.75;1.73;;;;;;;16.36;59.56;99696.50;4974357;28;20031;-77
2021/12/05 04:34:31;;;;;;;3.40;1.60;;;;;;;16.36;59.49;99699.09;4974066;28;20026;-75
2021/12/05 04:36:57;;;;;;;4.30;1.83;;;;;;;16.36;59.57;99702.53;4974290;28;20141;-76
2021/12/05 04:39:24;;;;;;;3.72;1.80;;;;;;;16.36;59.49;99704.28;4974165;28;20181;-75
2021/12/05 04:41:50;;;;;;;2.65;1.45;;;;;;;16.37;59.61;99703.38;4974091;28;20038;-77
2021/12/05 04:44:17;;;;;;;3.35;1.58;;;;;;;16.36;59.90;99701.69;4975216;28;20523;-76
2021/12/05 04:46:42;;;;;;;2.25;1.40;;;;;;;16.37;59.59;99698.19;4974073;28;20058;-75
2021/12/05 04:49:08;;;;;;;2.85;1.50;;;;;;;16.37;59.34;99703.38;4941855;28;20077;-76
2021/12/05 04:51:38;;;;;;;2.67;1.60;;;;;;;16.36;59.54;99699.94;4958190;28;20050;-76
2021/12/05 04:54:05;;;;;;;4.07;1.35;;;;;;;16.38;59.41;99698.16;4973866;28;20066;-76
2021/12/05 04:56:31;;;;;;;2.58;1.40;;;;;;;16.39;59.32;99704.19;4957881;28;20039;-75
2021/12/05 04:58:58;;;;;;;2.42;1.50;;;;;;;16.38;59.34;99699.91;4973958;28;20031;-76
2021/12/05 05:01:25;;;;;;;2.22;1.30;;;;;;;16.38;59.26;99705.09;4958091;28;20038;-76
2021/12/05 05:03:51;;;;;;;2.45;1.50;;;;;;;16.39;59.44;99706.78;4957892;28;20039;-77
2021/12/05 05:06:18;;;;;;;3.17;1.40;;;;;;;16.37;59.61;99708.56;4973842;28;20513;-76
2021/12/05 05:08:52;;;;;;;2.13;1.15;;;;;;;16.38;59.33;99705.09;4957971;28;20054;-76
2021/12/05 05:11:21;;;;;;;2.90;1.50;;;;;;;16.39;59.45;99712.84;4973393;28;20035;-81
2021/12/05 05:13:47;;;;;;;2.95;1.63;;;;;;;16.40;59.34;99711.13;4975228;28;20389;-80
2021/12/05 05:16:15;;;;;;;2.60;1.33;;;;;;;16.41;59.15;99715.41;4973854;28;20455;-80
2021/12/05 05:24:10;;;;;;;2.40;1.40;;;;;;;16.40;59.36;99721.50;4958186;28;20027;-85
2021/12/05 05:50:17;;;;;;;2.03;1.13;;;;;;;16.47;58.79;99772.41;4958124;28;20039;-80
2021/12/05 05:52:43;;;;;;;2.15;1.25;;;;;;;16.48;58.79;99781.88;4957958;28;20038;-84
2021/12/05 05:55:10;;;;;;;1.98;1.25;;;;;;;16.49;58.73;99775.81;4973540;28;20552;-84
2021/12/05 05:57:48;;;;;;;1.63;1.00;;;;;;;16.49;58.91;99782.75;4973652;28;20405;-84
2021/12/05 06:00:29;;;;;;;2.25;1.13;;;;;;;16.50;58.84;99785.31;4973823;28;20089;-83
2021/12/05 06:06:07;;;;;;;1.85;1.20;;;;;;;16.51;58.65;99781.84;4915418;29;20036;-82
2021/12/05 06:08:34;;;;;;;2.05;0.88;;;;;;;16.52;58.78;99791.31;4963315;28;20054;-82
2021/12/05 06:11:02;;;;;;;2.22;1.20;;;;;;;16.53;58.84;99792.19;4973502;28;20428;-83
2021/12/05 06:13:29;;;;;;;2.00;1.10;;;;;;;16.53;58.62;99795.66;4973394;28;20026;-83
2021/12/05 06:15:55;;;;;;;1.27;0.98;;;;;;;16.53;58.60;99803.44;4973144;28;20414;-85
2021/12/05 06:18:22;;;;;;;1.67;1.10;;;;;;;16.56;58.56;99807.72;4973180;28;20026;-85
2021/12/05 06:20:49;;;;;;;1.65;1.10;;;;;;;16.56;58.81;99810.31;4957602;28;20050;-85
2021/12/05 06:23:16;;;;;;;1.60;0.95;;;;;;;16.56;58.63;99815.50;4974405;28;20038;-81
2021/12/05 06:25:45;;;;;;;1.67;1.17;;;;;;;16.56;58.68;99813.75;4960903;28;20042;-79
2021/12/05 06:28:13;;;;;;;1.67;1.00;;;;;;;16.57;58.67;99814.59;4976714;28;20496;-84
2021/12/05 06:39:17;;;;;;;2.83;1.10;;;;;;;16.60;58.86;99815.41;4950844;28;20046;-84
2021/12/05 06:47:04;;;;;;;1.35;1.00;;;;;;;16.61;58.28;99830.09;4977985;28;20495;-82
2021/12/05 06:49:29;;;;;;;2.80;1.10;;;;;;;16.62;58.68;99838.75;4960912;28;20389;-84
2021/12/05 06:51:55;;;;;;;2.60;1.20;;;;;;;16.63;58.38;99843.88;4960568;28;20042;-80
2021/12/05 06:54:22;;;;;;;1.27;0.85;;;;;;;16.63;58.29;99836.09;4944615;28;20062;-83
2021/12/05 06:56:47;;;;;;;2.90;1.00;;;;;;;16.63;58.21;99841.28;4976419;28;20488;-84
2021/12/05 06:59:13;;;;;;;1.65;0.95;;;;;;;16.64;58.33;99848.22;4976574;28;20195;-85
2021/12/05 07:01:38;;;;;;;1.40;0.90;;;;;;;16.65;58.16;99846.47;4960227;28;20034;-79
2021/12/05 07:04:13;;;;;;;1.85;1.00;;;;;;;16.62;58.37;99849.13;4944474;28;20037;-79
2021/12/05 07:06:41;;;;;;;1.65;1.10;;;;;;;16.61;58.87;99852.59;4976123;28;20037;-79
2021/12/05 07:09:09;;;;;;;1.70;1.20;;;;;;;16.60;58.95;99856.97;4960122;28;20035;-80
2021/12/05 07:16:56;;;;;;;4.03;1.90;;;;;;;16.61;58.71;99865.59;4977517;28;20112;-80
2021/12/05 07:22:25;;;;;;;7.75;2.45;;;;;;;16.60;58.86;99882.94;4933887;28;20038;-81
2021/12/05 07:25:03;;;;;;;7.60;2.67;;;;;;;16.60;58.96;99888.13;4945368;28;20066;-77
2021/12/05 07:41:13;;;;;;;6.45;2.55;;;;;;;16.62;59.46;99901.94;4977068;28;19944;-82
2021/12/05 07:43:39;;;;;;;6.15;2.47;;;;;;;16.62;59.62;99903.69;4975522;28;20093;-82
2021/12/05 07:46:06;;;;;;;6.18;2.72;;;;;;;16.62;59.46;99904.53;4975397;28;20043;-82
2021/12/05 07:48:35;;;;;;;8.00;2.63;;;;;;;16.62;59.87;99907.13;4959306;28;20050;-81
2021/12/05 07:54:09;;;;;;;5.28;2.42;;;;;;;16.63;59.90;99916.63;4976647;28;20039;-80
2021/12/05 07:59:30;;;;;;;6.50;2.50;;;;;;;16.63;59.66;99927.00;4976398;28;20038;-79
2021/12/05 08:15:44;;;;;;;5.47;2.30;;;;;;;16.67;59.61;99938.22;4975373;28;20061;-83
2021/12/05 08:18:10;;;;;;;5.45;2.50;;;;;;;16.67;59.59;99935.63;4975248;28;20041;-80
2021/12/05 08:20:41;;;;;;;5.22;2.38;;;;;;;16.67;59.54;99946.84;4958935;28;20035;-82
2021/12/05 08:23:08;;;;;;;4.32;2.22;;;;;;;16.66;59.51;99950.34;4975191;28;20034;-83
2021/12/05 08:25:39;;;;;;;4.85;2.10;;;;;;;16.68;59.57;99950.31;4958748;28;20134;-81
2021/12/05 08:28:55;;;;;;;3.42;1.88;;;;;;;16.69;59.66;99956.38;4974900;28;20058;-80
2021/12/05 08:31:11;;;;;;;3.83;2.00;;;;;;;16.68;59.55;99960.72;4965372;28;20038;-80
2021/12/05 08:33:49;;;;;;;5.25;2.20;;;;;;;16.70;59.55;99958.94;4961095;28;20400;-82
2021/12/05 10:06:45;;;;;;;4.90;2.45;;;;;;;17.20;58.39;100100.06;4979175;28;19917;-87
2021/12/05 10:06:48;;;;;;;4.63;2.10;;;;;;;17.21;58.67;100101.78;4978049;28;20042;-85
2021/12/05 10:14:57;;;;;;;3.88;1.80;;;;;;;17.25;58.32;100108.63;4977871;28;20039;-89
2021/12/05 10:34:39;;;;;;;4.15;1.90;;;;;;;17.34;58.00;100118.00;4981076;28;20136;-88
2021/12/05 10:37:12;;;;;;;3.45;1.90;;;;;;;17.35;58.00;100118.84;4977820;28;20042;-89
2021/12/05 10:39:39;;;;;;;5.47;2.00;;;;;;;17.35;57.90;100124.03;4978030;28;20105;-89
2021/12/05 10:42:36;;;;;;;2.65;1.83;;;;;;;17.36;57.89;100133.56;4961941;28;20045;-89
2021/12/05 10:45:07;;;;;;;3.22;1.98;;;;;;;17.36;57.92;100137.03;4977691;28;20054;-89
2021/12/05 10:47:42;;;;;;;2.45;1.80;;;;;;;17.36;57.79;100137.03;4978705;28;20049;-90
2021/12/05 10:50:32;;;;;;;3.00;1.70;;;;;;;17.38;57.92;100132.66;4978109;28;20134;-88
2021/12/05 10:53:21;;;;;;;2.40;1.48;;;;;;;17.39;57.73;100136.94;4978494;28;20031;-87
2021/12/05 10:56:01;;;;;;;2.50;1.60;;;;;;;17.41;57.64;100149.94;4979623;28;20041;-87
2021/12/05 10:58:33;;;;;;;2.83;1.70;;;;;;;17.42;57.71;100151.63;4978585;28;20033;-87
2021/12/05 11:01:10;;;;;;;2.37;1.70;;;;;;;17.44;57.51;100155.06;4978308;28;20089;-88
2021/12/05 11:03:36;;;;;;;2.83;1.80;;;;;;;17.45;57.36;100157.63;4977241;28;20030;-87
2021/12/05 11:06:19;;;;;;;2.72;1.70;;;;;;;17.46;57.33;100159.38;4961567;28;20511;-88
2021/12/05 11:08:45;;;;;;;3.63;1.73;;;;;;;17.47;57.42;100158.47;4977154;28;20085;-88
2021/12/05 11:11:13;;;;;;;2.08;1.38;;;;;;;17.47;57.27;100166.28;4945865;28;20039;-88
2021/12/05 11:13:41;;;;;;;2.00;1.27;;;;;;;17.50;57.32;100167.09;4976952;28;20043;-88
2021/12/05 11:16:34;;;;;;;3.47;1.75;;;;;;;17.48;57.35;100172.31;4977386;28;20034;-87
2021/12/05 11:19:00;;;;;;;2.47;1.50;;;;;;;17.47;57.53;100181.88;4976807;28;20035;-87
2021/12/05 11:21:34;;;;;;;5.13;1.50;;;;;;;17.46;57.62;100185.38;4976864;28;20039;-86
2021/12/05 11:24:11;;;;;;;2.47;1.48;;;;;;;17.45;57.57;100186.25;4978182;28;20027;-89
2021/12/05 11:26:40;;;;;;;4.22;1.77;;;;;;;17.44;57.79;100183.66;4976754;28;20057;-88
2021/12/05 11:29:07;;;;;;;2.55;1.70;;;;;;;17.42;57.80;100188.94;4977312;28;20041;-88
2021/12/05 11:31:34;;;;;;;2.75;1.67;;;;;;;17.46;57.67;100195.78;4944853;28;20066;-92
2021/12/05 11:33:59;;;;;;;2.65;1.70;;;;;;;17.46;57.97;100192.31;4976298;28;20057;-83
2021/12/05 11:36:28;;;;;;;2.42;1.70;;;;;;;17.44;57.74;100200.16;4943936;28;20477;-84
2021/12/05 11:38:54;;;;;;;3.95;1.67;;;;;;;17.43;57.79;100198.44;4976284;28;20035;-86
2021/12/05 11:41:22;;;;;;;4.15;1.80;;;;;;;17.45;57.48;100211.41;4975975;28;20105;-84
2021/12/05 11:43:52;;;;;;;2.38;1.70;;;;;;;17.43;57.86;100211.44;4959994;28;20043;-87
2021/12/05 11:46:36;;;;;;;3.78;1.70;;;;;;;17.42;57.82;100207.13;4975729;28;20125;-84
2021/12/05 11:49:08;;;;;;;5.80;1.65;;;;;;;17.42;57.90;100209.72;4975527;28;20051;-84
2021/12/05 11:51:49;;;;;;;3.17;1.77;;;;;;;17.41;58.04;100207.16;4976855;28;20073;-84
2021/12/05 11:54:21;;;;;;;3.08;1.80;;;;;;;17.42;58.15;100221.84;4975470;28;20031;-84
2021/12/05 11:57:02;;;;;;;2.58;1.85;;;;;;;17.42;58.18;100214.06;4975500;28;20031;-83
2021/12/05 11:59:36;;;;;;;2.20;1.52;;;;;;;17.41;58.32;100213.19;4975666;28;20042;-87
2021/12/05 12:02:33;;;;;;;2.60;1.48;;;;;;;17.41;58.12;100218.41;4975700;28;20086;-86
2021/12/05 12:05:01;;;;;;;3.40;1.38;;;;;;;17.42;58.29;100227.94;4974260;28;20511;-85
2021/12/05 12:07:51;;;;;;;2.40;1.60;;;;;;;17.42;58.17;100233.16;4975545;28;20599;-84
2021/12/05 12:10:33;;;;;;;3.80;1.80;;;;;;;17.42;58.07;100233.16;4975657;28;20126;-85
2021/12/05 12:13:06;;;;;;;4.45;1.70;;;;;;;17.43;58.00;100241.78;4975206;28;20027;-84
2021/12/05 12:15:33;;;;;;;2.25;1.60;;;;;;;17.42;58.49;100245.25;4975462;28;20035;-85
2021/12/05 12:18:10;;;;;;;2.17;1.70;;;;;;;17.42;58.38;100243.53;4959796;28;20086;-88
2021/12/05 12:20:39;;;;;;;1.60;1.40;;;;;;;17.42;58.32;100238.34;4977096;28;20500;-88
2021/12/05 12:23:06;;;;;;;3.70;1.75;;;;;;;17.43;57.85;100240.03;4978045;28;20113;-89
2021/12/05 12:25:38;;;;;;;2.70;1.80;;;;;;;17.45;58.31;100245.22;4978203;28;20069;-88
2021/12/05 12:28:05;;;;;;;6.82;3.13;;;;;;;17.46;58.35;100246.94;4978749;28;20038;-89
2021/12/05 12:30:34;;;;;;;6.97;3.45;;;;;;;17.47;58.12;100249.50;4945910;28;20050;-87
2021/12/05 12:33:10;;;;;;;5.70;3.30;;;;;;;17.49;58.25;100254.69;4976487;28;20031;-85
2021/12/05 12:35:37;;;;;;;8.90;3.03;;;;;;;17.49;58.71;100257.28;4975244;28;20038;-84
2021/12/05 12:38:14;;;;;;;6.35;3.03;;;;;;;17.51;58.88;100263.34;4959156;28;20066;-85
2021/12/05 12:40:58;;;;;;;6.50;2.97;;;;;;;17.53;58.82;100268.47;4974933;28;20122;-85
2021/12/05 12:43:42;;;;;;;5.97;2.97;;;;;;;17.53;58.97;100273.69;4976180;28;20034;-84
2021/12/05 12:46:22;;;;;;;6.15;2.83;;;;;;;17.52;58.86;100272.84;4974872;28;20066;-85
2021/12/05 12:48:53;;;;;;;7.30;3.00;;;;;;;17.54;59.10;100285.81;4974341;28;20125;-86
2021/12/05 12:51:32;;;;;;;7.18;2.72;;;;;;;17.53;58.74;100284.09;4974567;28;20041;-85
2021/12/05 12:54:01;;;;;;;5.43;2.80;;;;;;;17.54;59.13;100291.03;4974635;28;20039;-86
2021/12/05 12:56:27;;;;;;;4.68;3.05;;;;;;;17.53;59.39;100290.19;4974648;28;20113;-85
2021/12/05 12:58:59;;;;;;;5.63;2.78;;;;;;;17.53;59.33;100292.78;4974712;28;20557;-85
2021/12/05 13:01:50;;;;;;;5.07;2.90;;;;;;;17.54;59.47;100293.63;4974826;28;20121;-86
2021/12/05 13:10:29;;;;;;;5.30;2.55;;;;;;;17.55;59.38;100300.53;4975364;28;20108;-86
2021/12/05 13:13:15;;;;;;;4.53;2.58;;;;;;;17.56;59.80;100310.91;4975444;28;20034;-85
2021/12/05 13:15:53;;;;;;;5.43;2.60;;;;;;;17.57;59.52;100311.78;4974297;28;20108;-86
2021/12/05 13:18:26;;;;;;;4.07;2.42;;;;;;;17.56;59.49;100310.06;4974085;28;20030;-86
2021/12/05 13:20:59;;;;;;;4.10;2.28;;;;;;;17.57;59.61;100316.97;4974545;28;20125;-85
2021/12/05 13:23:42;;;;;;;3.88;2.72;;;;;;;17.57;59.52;100322.19;4974013;28;20517;-86
2021/12/05 13:26:25;;;;;;;6.93;3.17;;;;;;;17.57;59.63;100327.38;4975090;28;20070;-86
2021/12/05 13:29:15;;;;;;;5.28;2.90;;;;;;;17.57;59.61;100336.06;4973831;28;20054;-86
2021/12/05 13:31:43;;;;;;;3.78;2.63;;;;;;;17.57;59.55;100335.19;4973413;28;20034;-86
2021/12/05 13:34:16;;;;;;;5.15;2.72;;;;;;;17.56;59.77;100338.69;4973935;28;20107;-86
2021/12/05 13:36:44;;;;;;;3.85;2.17;;;;;;;17.58;59.31;100347.31;4973940;28;20031;-87
2021/12/05 13:39:47;;;;;;;5.47;2.47;;;;;;;17.57;59.49;100362.09;4974045;28;20114;-85
2021/12/05 13:42:45;;;;;;;4.72;2.47;;;;;;;17.56;59.78;100359.50;4974914;28;20041;-86
2021/12/05 13:45:21;;;;;;;3.03;2.20;;;;;;;17.58;59.65;100362.94;4961600;28;20039;-87
2021/12/05 13:47:52;;;;;;;3.88;2.50;;;;;;;17.57;59.85;100362.09;4973793;28;20426;-86
2021/12/05 13:50:30;;;;;;;3.33;2.58;;;;;;;17.57;59.86;100366.41;4974227;28;20038;-87
2021/12/05 13:53:07;;;;;;;3.47;2.50;;;;;;;17.56;59.70;100370.75;4974250;28;20042;-87
2021/12/05 13:55:45;;;;;;;2.97;2.20;;;;;;;17.54;59.65;100376.88;4975658;28;20031;-86
2021/12/05 13:58:28;;;;;;;3.72;2.50;;;;;;;17.53;59.79;100391.63;4974044;28;20035;-86
2021/12/05 14:01:07;;;;;;;3.17;2.40;;;;;;;17.53;59.69;100401.16;4974141;28;20030;-86
2021/12/05 14:03:57;;;;;;;3.20;2.50;;;;;;;17.52;59.62;100407.25;4975168;28;20485;-86
2021/12/05 14:06:43;;;;;;;3.25;2.45;;;;;;;17.50;59.67;100414.22;4974244;28;20457;-87
2021/12/05 14:09:23;;;;;;;2.95;2.42;;;;;;;17.50;60.11;100417.69;4973971;28;20374;-85
2021/12/05 14:11:57;;;;;;;3.00;2.28;;;;;;;17.50;59.87;100419.44;4974082;28;20477;-85
2021/12/05 14:14:40;;;;;;;3.58;2.67;;;;;;;17.48;59.58;100433.34;4974520;28;20049;-87
2021/12/05 14:17:21;;;;;;;3.47;2.28;;;;;;;17.47;59.81;100441.16;4974768;28;20061;-85
2021/12/05 14:20:11;;;;;;;2.85;2.20;;;;;;;17.47;59.90;100444.59;4973772;28;20066;-85
2021/12/05 14:22:38;;;;;;;3.47;2.38;;;;;;;17.48;59.81;100443.75;4976445;28;20035;-81
2021/12/05 14:25:07;;;;;;;3.53;2.63;;;;;;;17.52;59.86;100454.94;4958352;28;20540;-85
2021/12/05 14:27:39;;;;;;;4.68;2.60;;;;;;;17.53;59.92;100455.78;4973254;28;20129;-85
2021/12/05 14:30:08;;;;;;;5.65;2.83;;;;;;;17.56;59.78;100463.56;4974135;28;20066;-90
2021/12/05 14:32:41;;;;;;;3.17;2.60;;;;;;;17.56;59.75;100467.03;4979437;28;20047;-89
2021/12/05 14:35:08;;;;;;;5.15;2.45;;;;;;;17.55;59.94;100470.53;4975531;28;20053;-77
2021/12/05 14:37:37;;;;;;;3.60;2.60;;;;;;;17.54;59.82;100476.59;4972982;28;20441;-77
2021/12/05 14:40:09;;;;;;;3.38;2.50;;;;;;;17.54;59.98;100473.13;4972916;28;20031;-80
2021/12/05 14:42:37;;;;;;;3.40;2.30;;;;;;;17.54;60.00;100479.19;4973347;28;21270;-79
2021/12/05 14:45:15;;;;;;;5.57;2.47;;;;;;;17.56;59.89;100493.03;4975499;28;20039;-78
2021/12/05 14:47:43;;;;;;;3.22;2.53;;;;;;;17.57;59.93;100493.91;4976370;28;20054;-79
2021/12/05 14:50:26;;;;;;;3.65;2.42;;;;;;;17.56;59.78;100498.25;4977525;28;20035;-79
2021/12/05 14:52:57;;;;;;;3.15;2.42;;;;;;;17.58;59.87;100501.69;4976477;28;20035;-82
2021/12/05 14:55:25;;;;;;;3.30;2.63;;;;;;;17.57;60.06;100510.38;4976306;28;20085;-81
2021/12/05 14:57:58;;;;;;;2.97;2.60;;;;;;;17.58;59.99;100519.03;4976591;28;20452;-78
2021/12/05 15:00:36;;;;;;;3.30;2.70;;;;;;;17.59;60.02;100528.56;4976328;28;20066;-76
2021/12/05 15:03:14;;;;;;;5.25;2.40;;;;;;;17.58;59.92;100538.13;4976081;28;20026;-77
2021/12/05 15:05:42;;;;;;;3.63;2.45;;;;;;;17.58;59.93;100548.53;4976129;28;20036;-78
2021/12/05 15:08:14;;;;;;;4.20;2.53;;;;;;;17.59;59.75;100545.03;4976277;28;20035;-79
2021/12/05 15:10:41;;;;;;;4.55;2.67;;;;;;;17.59;59.70;100552.81;4976352;28;20038;-80
2021/12/05 15:13:09;;;;;;;3.75;2.58;;;;;;;17.60;59.93;100564.13;4976808;28;20039;-78
2021/12/05 15:15:35;;;;;;;3.80;2.67;;;;;;;17.60;59.94;100566.72;4960224;28;20130;-78
2021/12/05 15:18:01;;;;;;;3.75;2.78;;;;;;;17.60;60.02;100575.38;4960449;28;20111;-82
2021/12/05 15:20:31;;;;;;;2.90;2.60;;;;;;;17.59;59.93;100575.41;4976041;28;20043;-81
2021/12/05 15:23:06;;;;;;;4.13;2.78;;;;;;;17.57;59.98;100575.44;4976082;28;20042;-82
2021/12/05 15:25:34;;;;;;;4.63;2.95;;;;;;;17.57;60.18;100575.44;4975917;28;20069;-77
2021/12/05 15:28:02;;;;;;;4.05;2.80;;;;;;;17.56;60.09;100576.31;4976305;28;20523;-78
2021/12/05 15:30:30;;;;;;;3.15;2.50;;;;;;;17.55;60.12;100589.31;4975643;28;20039;-80
2021/12/05 15:33:00;;;;;;;4.22;2.80;;;;;;;17.55;60.00;100591.91;4975547;28;20047;-79
2021/12/05 15:35:26;;;;;;;3.90;2.65;;;;;;;17.54;60.16;100590.22;4975944;28;20031;-78
2021/12/05 15:37:53;;;;;;;3.67;2.83;;;;;;;17.53;59.84;100591.09;4975433;28;20031;-81
2021/12/05 15:40:21;;;;;;;3.92;2.95;;;;;;;17.52;60.05;100595.44;4975480;28;20435;-79
2021/12/05 15:42:46;;;;;;;3.38;2.80;;;;;;;17.52;59.96;100616.25;4975387;28;20047;-78
2021/12/05 15:45:15;;;;;;;3.47;2.85;;;;;;;17.53;59.96;100617.97;4959373;28;20046;-81
2021/12/05 15:47:41;;;;;;;3.00;2.80;;;;;;;17.55;59.94;100623.16;4975274;28;20098;-80
2021/12/05 15:50:14;;;;;;;3.83;2.90;;;;;;;17.55;59.91;100628.34;4943127;28;20051;-80
2021/12/05 15:52:44;;;;;;;3.67;2.78;;;;;;;17.56;59.85;100638.75;4975368;28;20516;-82
2021/12/05 15:55:14;;;;;;;3.47;3.00;;;;;;;17.58;59.85;100649.13;4975144;28;20093;-78
2021/12/05 15:57:45;;;;;;;3.20;2.90;;;;;;;17.58;59.88;100647.41;4975141;28;20097;-83
2021/12/05 16:00:24;;;;;;;3.28;2.97;;;;;;;17.58;59.91;100651.75;4975457;28;20027;-81
2021/12/05 16:03:04;;;;;;;4.95;2.97;;;;;;;17.57;59.87;100657.81;4975715;28;20083;-87
2021/12/05 16:05:31;;;;;;;4.28;3.33;;;;;;;17.55;59.97;100663.06;4983815;28;20031;-88
2021/12/05 16:08:03;;;;;;;4.97;3.38;;;;;;;17.55;59.91;100667.38;4964753;28;20034;-87
2021/12/05 16:10:31;;;;;;;4.05;3.33;;;;;;;17.54;59.97;100674.31;4979654;28;20039;-88
2021/12/05 16:12:56;;;;;;;4.57;3.33;;;;;;;17.53;60.03;100685.63;4975889;28;20035;-88
2021/12/05 16:15:27;;;;;;;5.53;3.22;;;;;;;17.52;60.09;100691.69;4944164;28;20046;-85
2021/12/05 16:18:02;;;;;;;4.68;3.45;;;;;;;17.52;59.82;100702.09;4977255;28;20513;-87
2021/12/05 16:20:36;;;;;;;3.92;3.53;;;;;;;17.52;60.05;100712.50;4976023;28;20041;-90
2021/12/05 16:23:04;;;;;;;4.78;3.72;;;;;;;17.51;60.17;100716.00;4975644;28;20034;-87
2021/12/05 16:25:31;;;;;;;4.50;3.90;;;;;;;17.51;60.06;100717.72;4976021;28;20034;-86
2021/12/05 16:28:02;;;;;;;3.80;3.45;;;;;;;17.50;60.08;100716.88;4975538;28;20041;-85
2021/12/05 16:30:35;;;;;;;4.07;3.67;;;;;;;17.50;59.87;100724.66;4974860;28;20030;-86
2021/12/05 16:33:03;;;;;;;4.95;3.63;;;;;;;17.49;60.18;100738.56;4975168;28;20045;-86
2021/12/05 16:35:32;;;;;;;4.90;3.78;;;;;;;17.48;59.98;100736.84;4959467;28;20146;-87
2021/12/05 16:37:58;;;;;;;4.20;3.50;;;;;;;17.48;60.14;100740.31;4975890;28;20035;-87
2021/12/05 16:40:25;;;;;;;3.53;3.22;;;;;;;17.48;60.04;100740.31;4975426;28;20098;-87
2021/12/05 16:43:10;;;;;;;4.38;3.97;;;;;;;17.48;60.02;100747.25;4975935;28;20045;-88
2021/12/05 16:45:37;;;;;;;4.85;4.18;;;;;;;17.48;59.97;100758.53;4976620;28;20039;-88
2021/12/05 16:48:03;;;;;;;4.88;4.03;;;;;;;17.49;59.85;100756.78;4958987;28;20070;-85
2021/12/05 16:50:29;;;;;;;4.22;3.83;;;;;;;17.48;59.97;100763.72;4976299;28;20046;-85
2021/12/05 16:52:55;;;;;;;4.70;4.20;;;;;;;17.48;59.84;100760.25;4959115;28;20035;-86
2021/12/05 16:55:26;;;;;;;5.18;4.03;;;;;;;17.47;59.97;100766.34;4959357;28;20474;-87
2021/12/05 16:58:14;;;;;;;6.50;3.90;;;;;;;17.46;59.84;100773.28;4975909;28;20039;-87
2021/12/05 17:00:45;;;;;;;4.18;3.78;;;;;;;17.46;59.87;100773.28;4961558;28;20045;-86
2021/12/05 17:03:18;;;;;;;4.57;4.18;;;;;;;17.46;59.97;100775.91;4974771;28;20114;-87
2021/12/05 17:05:47;;;;;;;4.75;4.15;;;;;;;17.46;60.15;100781.09;4975119;28;20042;-84
2021/12/05 17:08:17;;;;;;;4.43;4.00;;;;;;;17.46;60.20;100791.50;4974456;28;20042;-85
2021/12/05 17:10:48;;;;;;;4.38;3.97;;;;;;;17.46;59.92;100791.50;4977111;28;20046;-85
2021/12/05 17:13:36;;;;;;;4.40;4.00;;;;;;;17.46;59.79;100801.91;4974379;28;20038;-83
2021/12/05 17:16:13;;;;;;;4.90;4.30;;;;;;;17.48;59.57;100807.06;4973937;28;20034;-80
2021/12/05 17:18:46;;;;;;;4.43;4.03;;;;;;;17.48;59.66;100810.56;4974963;28;20027;-78
2021/12/05 17:21:21;;;;;;;4.43;4.03;;;;;;;17.49;59.64;100816.63;4973933;28;20046;-84